Main page
METAR-TAF:

METAR-TAF

Airports :

Aghajari, Iran

latitude: 30-46N, longitude: 049-40E, elevation: 29 m

Current weather observation

The report was made 39 minutes ago, at 07:00 UTC
Wind 4 kt from the West
Temperature 23°C
Humidity 41%
Pressure 1017 hPa
Visibility: 7000 m

METAR: OIAG 240700Z 27004KT 7000 NSC 23/09 Q1017

Time: 11:09 (07:39 UTC)


TAF: missing

Weather observations and forecasts of more than 4000 airports (METAR and TAF reports).

The available stations are represented by yellow and red dots on the map.

Hover mouse over dot to see the name of the station.

Then click to see weather observations and forecasts.

To change the map : click on the green buttons with a black cross to zoom in, on the green button with a dash to zoom out, or on the green arrows for adjacent maps.


METAR-TAF: